sensor_id;sensor_type;location;lat;lon;timestamp;temperature;humidity
56300;DHT22;42209;6.376;-10.782;2023-09-19T00:00:22;21.50;62.00
56300;DHT22;42209;6.376;-10.782;2023-09-19T00:02:57;21.60;68.30
56300;DHT22;42209;6.376;-10.782;2023-09-19T00:05:33;21.80;72.20
56300;DHT22;42209;6.376;-10.782;2023-09-19T00:08:02;21.90;74.70
56300;DHT22;42209;6.376;-10.782;2023-09-19T00:10:32;22.00;75.90
56300;DHT22;42209;6.376;-10.782;2023-09-19T00:13:04;22.10;77.70
56300;DHT22;42209;6.376;-10.782;2023-09-19T00:15:44;22.20;78.80
56300;DHT22;42209;6.376;-10.782;2023-09-19T00:18:13;22.30;79.80
56300;DHT22;42209;6.376;-10.782;2023-09-19T00:20:42;22.40;80.90
56300;DHT22;42209;6.376;-10.782;2023-09-19T00:23:10;22.40;81.10
56300;DHT22;42209;6.376;-10.782;2023-09-19T00:25:39;22.50;81.30
56300;DHT22;42209;6.376;-10.782;2023-09-19T00:28:08;22.60;81.70
56300;DHT22;42209;6.376;-10.782;2023-09-19T00:30:37;22.70;81.50
56300;DHT22;42209;6.376;-10.782;2023-09-19T00:33:07;22.80;81.10
56300;DHT22;42209;6.376;-10.782;2023-09-19T00:35:36;22.80;79.20
56300;DHT22;42209;6.376;-10.782;2023-09-19T00:38:04;22.60;73.90
56300;DHT22;42209;6.376;-10.782;2023-09-19T00:40:33;22.30;71.00
56300;DHT22;42209;6.376;-10.782;2023-09-19T00:43:02;22.10;68.80
56300;DHT22;42209;6.376;-10.782;2023-09-19T00:45:31;21.90;67.00
56300;DHT22;42209;6.376;-10.782;2023-09-19T00:48:02;21.70;65.50
56300;DHT22;42209;6.376;-10.782;2023-09-19T00:50:31;21.60;63.30
56300;DHT22;42209;6.376;-10.782;2023-09-19T00:53:00;21.50;63.40
56300;DHT22;42209;6.376;-10.782;2023-09-19T00:55:30;21.70;70.40
56300;DHT22;42209;6.376;-10.782;2023-09-19T00:57:58;21.80;73.80
56300;DHT22;42209;6.376;-10.782;2023-09-19T01:00:27;21.90;75.50
56300;DHT22;42209;6.376;-10.782;2023-09-19T01:02:57;22.10;77.30
56300;DHT22;42209;6.376;-10.782;2023-09-19T01:05:25;22.20;78.80
56300;DHT22;42209;6.376;-10.782;2023-09-19T01:07:54;22.20;80.00
56300;DHT22;42209;6.376;-10.782;2023-09-19T01:10:23;22.30;81.10
56300;DHT22;42209;6.376;-10.782;2023-09-19T01:12:55;22.40;82.20
56300;DHT22;42209;6.376;-10.782;2023-09-19T01:15:40;22.50;82.60
56300;DHT22;42209;6.376;-10.782;2023-09-19T01:18:40;22.60;83.00
56300;DHT22;42209;6.376;-10.782;2023-09-19T01:21:12;22.70;83.30
56300;DHT22;42209;6.376;-10.782;2023-09-19T01:29:23;22.50;74.50
56300;DHT22;42209;6.376;-10.782;2023-09-19T01:32:01;22.20;71.40
56300;DHT22;42209;6.376;-10.782;2023-09-19T01:37:18;21.80;66.60
56300;DHT22;42209;6.376;-10.782;2023-09-19T01:39:51;21.70;64.40
56300;DHT22;42209;6.376;-10.782;2023-09-19T01:43:00;21.60;63.50
56300;DHT22;42209;6.376;-10.782;2023-09-19T01:45:37;21.60;63.10
56300;DHT22;42209;6.376;-10.782;2023-09-19T01:51:06;22.00;75.00
56300;DHT22;42209;6.376;-10.782;2023-09-19T01:53:43;22.00;77.40
56300;DHT22;42209;6.376;-10.782;2023-09-19T01:56:25;22.10;79.00
56300;DHT22;42209;6.376;-10.782;2023-09-19T01:58:59;22.20;80.70
56300;DHT22;42209;6.376;-10.782;2023-09-19T02:01:31;22.30;82.10
56300;DHT22;42209;6.376;-10.782;2023-09-19T02:04:00;22.40;83.00
56300;DHT22;42209;6.376;-10.782;2023-09-19T02:06:32;22.40;83.30
56300;DHT22;42209;6.376;-10.782;2023-09-19T02:09:00;22.60;83.90
56300;DHT22;42209;6.376;-10.782;2023-09-19T02:11:29;22.60;84.20
56300;DHT22;42209;6.376;-10.782;2023-09-19T02:13:57;22.70;84.20
56300;DHT22;42209;6.376;-10.782;2023-09-19T02:16:25;22.80;83.70
56300;DHT22;42209;6.376;-10.782;2023-09-19T02:18:54;22.90;82.20
56300;DHT22;42209;6.376;-10.782;2023-09-19T02:21:23;22.60;75.60
56300;DHT22;42209;6.376;-10.782;2023-09-19T02:23:52;22.30;72.50
56300;DHT22;42209;6.376;-10.782;2023-09-19T02:26:20;22.00;70.10
56300;DHT22;42209;6.376;-10.782;2023-09-19T02:28:48;21.80;68.10
56300;DHT22;42209;6.376;-10.782;2023-09-19T02:31:17;21.70;66.20
56300;DHT22;42209;6.376;-10.782;2023-09-19T02:33:46;21.60;64.50
56300;DHT22;42209;6.376;-10.782;2023-09-19T02:36:14;21.60;63.10
56300;DHT22;42209;6.376;-10.782;2023-09-19T02:38:43;21.60;65.10
56300;DHT22;42209;6.376;-10.782;2023-09-19T02:41:11;21.70;71.80
56300;DHT22;42209;6.376;-10.782;2023-09-19T02:43:39;21.90;74.70
56300;DHT22;42209;6.376;-10.782;2023-09-19T02:46:08;22.00;76.80
56300;DHT22;42209;6.376;-10.782;2023-09-19T02:48:37;22.10;78.40
56300;DHT22;42209;6.376;-10.782;2023-09-19T02:51:05;22.20;80.00
56300;DHT22;42209;6.376;-10.782;2023-09-19T02:53:34;22.30;81.10
56300;DHT22;42209;6.376;-10.782;2023-09-19T02:56:02;22.30;82.00
56300;DHT22;42209;6.376;-10.782;2023-09-19T02:58:31;22.40;82.50
56300;DHT22;42209;6.376;-10.782;2023-09-19T03:00:59;22.50;83.20
56300;DHT22;42209;6.376;-10.782;2023-09-19T03:03:28;22.60;83.50
56300;DHT22;42209;6.376;-10.782;2023-09-19T03:05:56;22.70;83.40
56300;DHT22;42209;6.376;-10.782;2023-09-19T03:08:25;22.70;83.50
56300;DHT22;42209;6.376;-10.782;2023-09-19T03:10:53;22.80;83.50
56300;DHT22;42209;6.376;-10.782;2023-09-19T03:13:21;22.70;77.00
56300;DHT22;42209;6.376;-10.782;2023-09-19T03:15:50;22.40;72.60
56300;DHT22;42209;6.376;-10.782;2023-09-19T03:18:25;22.10;69.80
56300;DHT22;42209;6.376;-10.782;2023-09-19T03:20:56;21.90;67.40
56300;DHT22;42209;6.376;-10.782;2023-09-19T03:23:25;21.80;65.80
56300;DHT22;42209;6.376;-10.782;2023-09-19T03:25:54;21.60;64.10
56300;DHT22;42209;6.376;-10.782;2023-09-19T03:28:22;21.60;64.40
56300;DHT22;42209;6.376;-10.782;2023-09-19T03:33:29;21.90;74.00
56300;DHT22;42209;6.376;-10.782;2023-09-19T03:35:58;22.00;76.00
56300;DHT22;42209;6.376;-10.782;2023-09-19T03:38:27;22.10;77.40
56300;DHT22;42209;6.376;-10.782;2023-09-19T03:40:55;22.20;78.50
56300;DHT22;42209;6.376;-10.782;2023-09-19T03:43:24;22.20;79.90
56300;DHT22;42209;6.376;-10.782;2023-09-19T03:45:53;22.30;80.90
56300;DHT22;42209;6.376;-10.782;2023-09-19T03:48:23;22.40;81.50
56300;DHT22;42209;6.376;-10.782;2023-09-19T03:50:52;22.50;81.70
56300;DHT22;42209;6.376;-10.782;2023-09-19T03:53:20;22.50;81.70
56300;DHT22;42209;6.376;-10.782;2023-09-19T03:55:48;22.60;81.70
56300;DHT22;42209;6.376;-10.782;2023-09-19T03:58:17;22.70;81.40
56300;DHT22;42209;6.376;-10.782;2023-09-19T04:00:46;22.80;81.30
56300;DHT22;42209;6.376;-10.782;2023-09-19T04:03:14;22.70;75.20
56300;DHT22;42209;6.376;-10.782;2023-09-19T04:05:43;22.40;71.60
56300;DHT22;42209;6.376;-10.782;2023-09-19T04:08:11;22.10;68.70
56300;DHT22;42209;6.376;-10.782;2023-09-19T04:10:43;21.80;66.40
56300;DHT22;42209;6.376;-10.782;2023-09-19T04:13:12;21.70;64.70
56300;DHT22;42209;6.376;-10.782;2023-09-19T04:15:40;21.60;63.30
56300;DHT22;42209;6.376;-10.782;2023-09-19T04:18:09;21.70;69.00
56300;DHT22;42209;6.376;-10.782;2023-09-19T04:20:37;21.80;72.90
56300;DHT22;42209;6.376;-10.782;2023-09-19T04:23:07;21.90;75.10
56300;DHT22;42209;6.376;-10.782;2023-09-19T04:25:36;22.10;76.70
56300;DHT22;42209;6.376;-10.782;2023-09-19T04:28:04;22.10;78.30
56300;DHT22;42209;6.376;-10.782;2023-09-19T04:30:33;22.20;79.70
56300;DHT22;42209;6.376;-10.782;2023-09-19T04:33:02;22.30;80.70
56300;DHT22;42209;6.376;-10.782;2023-09-19T04:35:34;22.40;81.70
56300;DHT22;42209;6.376;-10.782;2023-09-19T04:38:02;22.50;82.40
56300;DHT22;42209;6.376;-10.782;2023-09-19T04:40:31;22.50;82.90
56300;DHT22;42209;6.376;-10.782;2023-09-19T04:43:00;22.60;83.20
56300;DHT22;42209;6.376;-10.782;2023-09-19T04:45:28;22.70;83.50
56300;DHT22;42209;6.376;-10.782;2023-09-19T04:47:57;22.80;83.50
56300;DHT22;42209;6.376;-10.782;2023-09-19T04:50:25;22.60;76.10
56300;DHT22;42209;6.376;-10.782;2023-09-19T04:52:53;22.30;72.50
56300;DHT22;42209;6.376;-10.782;2023-09-19T04:55:22;22.00;69.60
56300;DHT22;42209;6.376;-10.782;2023-09-19T04:57:51;21.90;67.40
56300;DHT22;42209;6.376;-10.782;2023-09-19T05:00:21;21.70;65.70
56300;DHT22;42209;6.376;-10.782;2023-09-19T05:02:53;21.70;70.70
56300;DHT22;42209;6.376;-10.782;2023-09-19T05:05:22;21.90;74.80
56300;DHT22;42209;6.376;-10.782;2023-09-19T05:07:51;22.00;76.80
56300;DHT22;42209;6.376;-10.782;2023-09-19T05:10:19;22.10;78.20
56300;DHT22;42209;6.376;-10.782;2023-09-19T05:12:48;22.20;79.70
56300;DHT22;42209;6.376;-10.782;2023-09-19T05:15:16;22.30;80.80
56300;DHT22;42209;6.376;-10.782;2023-09-19T05:17:51;22.30;82.00
56300;DHT22;42209;6.376;-10.782;2023-09-19T05:20:24;22.40;82.50
56300;DHT22;42209;6.376;-10.782;2023-09-19T05:22:59;22.50;83.00
56300;DHT22;42209;6.376;-10.782;2023-09-19T05:25:37;22.50;83.30
56300;DHT22;42209;6.376;-10.782;2023-09-19T05:28:10;22.60;82.70
56300;DHT22;42209;6.376;-10.782;2023-09-19T05:30:39;22.70;82.60
56300;DHT22;42209;6.376;-10.782;2023-09-19T05:33:07;22.80;82.60
56300;DHT22;42209;6.376;-10.782;2023-09-19T05:35:36;22.80;77.40
56300;DHT22;42209;6.376;-10.782;2023-09-19T05:38:04;22.40;73.00
56300;DHT22;42209;6.376;-10.782;2023-09-19T05:40:33;22.10;70.20
56300;DHT22;42209;6.376;-10.782;2023-09-19T05:43:01;21.90;67.60
56300;DHT22;42209;6.376;-10.782;2023-09-19T05:45:30;21.80;65.80
56300;DHT22;42209;6.376;-10.782;2023-09-19T05:48:08;21.70;66.30
56300;DHT22;42209;6.376;-10.782;2023-09-19T05:50:38;21.80;73.90
56300;DHT22;42209;6.376;-10.782;2023-09-19T05:53:06;22.00;76.60
56300;DHT22;42209;6.376;-10.782;2023-09-19T05:55:34;22.10;78.00
56300;DHT22;42209;6.376;-10.782;2023-09-19T05:58:03;22.20;79.50
56300;DHT22;42209;6.376;-10.782;2023-09-19T06:00:31;22.20;80.30
56300;DHT22;42209;6.376;-10.782;2023-09-19T06:03:00;22.30;81.40
56300;DHT22;42209;6.376;-10.782;2023-09-19T06:05:29;22.40;81.80
56300;DHT22;42209;6.376;-10.782;2023-09-19T06:07:58;22.40;82.40
56300;DHT22;42209;6.376;-10.782;2023-09-19T06:10:27;22.50;82.70
56300;DHT22;42209;6.376;-10.782;2023-09-19T06:12:56;22.60;82.20
56300;DHT22;42209;6.376;-10.782;2023-09-19T06:15:24;22.70;82.40
56300;DHT22;42209;6.376;-10.782;2023-09-19T06:17:54;22.80;82.00
56300;DHT22;42209;6.376;-10.782;2023-09-19T06:20:23;22.80;77.90
56300;DHT22;42209;6.376;-10.782;2023-09-19T06:22:53;22.50;73.30
56300;DHT22;42209;6.376;-10.782;2023-09-19T06:25:22;22.10;70.50
56300;DHT22;42209;6.376;-10.782;2023-09-19T06:27:52;21.90;67.80
56300;DHT22;42209;6.376;-10.782;2023-09-19T06:30:22;21.80;65.70
56300;DHT22;42209;6.376;-10.782;2023-09-19T06:32:56;21.70;67.50
56300;DHT22;42209;6.376;-10.782;2023-09-19T06:35:26;21.80;73.90
56300;DHT22;42209;6.376;-10.782;2023-09-19T06:37:55;21.90;76.30
56300;DHT22;42209;6.376;-10.782;2023-09-19T06:40:24;22.00;78.10
56300;DHT22;42209;6.376;-10.782;2023-09-19T06:42:53;22.10;79.60
56300;DHT22;42209;6.376;-10.782;2023-09-19T06:45:21;22.30;80.50
56300;DHT22;42209;6.376;-10.782;2023-09-19T06:47:52;22.30;81.70
56300;DHT22;42209;6.376;-10.782;2023-09-19T06:50:22;22.40;82.50
56300;DHT22;42209;6.376;-10.782;2023-09-19T06:52:54;22.40;82.80
56300;DHT22;42209;6.376;-10.782;2023-09-19T06:55:23;22.50;83.30
56300;DHT22;42209;6.376;-10.782;2023-09-19T06:57:51;22.60;83.40
56300;DHT22;42209;6.376;-10.782;2023-09-19T07:00:20;22.70;83.00
56300;DHT22;42209;6.376;-10.782;2023-09-19T07:03:02;22.80;83.20
56300;DHT22;42209;6.376;-10.782;2023-09-19T07:05:32;22.70;76.80
56300;DHT22;42209;6.376;-10.782;2023-09-19T07:08:02;22.30;72.50
56300;DHT22;42209;6.376;-10.782;2023-09-19T07:10:34;22.00;69.80
56300;DHT22;42209;6.376;-10.782;2023-09-19T07:13:05;21.90;67.70
56300;DHT22;42209;6.376;-10.782;2023-09-19T07:15:34;21.70;65.80
56300;DHT22;42209;6.376;-10.782;2023-09-19T07:18:02;21.70;69.40
56300;DHT22;42209;6.376;-10.782;2023-09-19T07:20:31;21.80;74.50
56300;DHT22;42209;6.376;-10.782;2023-09-19T07:23:02;22.00;77.00
56300;DHT22;42209;6.376;-10.782;2023-09-19T07:25:31;22.00;78.80
56300;DHT22;42209;6.376;-10.782;2023-09-19T07:28:00;22.20;80.10
56300;DHT22;42209;6.376;-10.782;2023-09-19T07:30:29;22.20;81.30
56300;DHT22;42209;6.376;-10.782;2023-09-19T07:32:57;22.30;82.50
56300;DHT22;42209;6.376;-10.782;2023-09-19T07:35:26;22.30;83.10
56300;DHT22;42209;6.376;-10.782;2023-09-19T07:37:54;22.40;83.70
56300;DHT22;42209;6.376;-10.782;2023-09-19T07:40:22;22.50;84.20
56300;DHT22;42209;6.376;-10.782;2023-09-19T07:42:51;22.60;84.10
56300;DHT22;42209;6.376;-10.782;2023-09-19T07:45:20;22.60;83.80
56300;DHT22;42209;6.376;-10.782;2023-09-19T07:47:49;22.80;83.60
56300;DHT22;42209;6.376;-10.782;2023-09-19T07:50:19;22.70;78.40
56300;DHT22;42209;6.376;-10.782;2023-09-19T07:52:49;22.40;73.60
56300;DHT22;42209;6.376;-10.782;2023-09-19T07:55:18;22.10;70.80
56300;DHT22;42209;6.376;-10.782;2023-09-19T07:57:46;21.90;68.60
56300;DHT22;42209;6.376;-10.782;2023-09-19T08:00:15;21.70;66.50
56300;DHT22;42209;6.376;-10.782;2023-09-19T08:02:44;21.60;66.80
56300;DHT22;42209;6.376;-10.782;2023-09-19T08:05:22;21.80;74.00
56300;DHT22;42209;6.376;-10.782;2023-09-19T08:07:51;22.00;76.80
56300;DHT22;42209;6.376;-10.782;2023-09-19T08:10:22;22.00;78.50
56300;DHT22;42209;6.376;-10.782;2023-09-19T08:12:50;22.20;79.80
56300;DHT22;42209;6.376;-10.782;2023-09-19T08:15:20;22.20;80.80
56300;DHT22;42209;6.376;-10.782;2023-09-19T08:17:49;22.30;82.20
56300;DHT22;42209;6.376;-10.782;2023-09-19T08:20:18;22.30;82.50
56300;DHT22;42209;6.376;-10.782;2023-09-19T08:22:50;22.40;82.90
56300;DHT22;42209;6.376;-10.782;2023-09-19T08:25:19;22.50;83.40
56300;DHT22;42209;6.376;-10.782;2023-09-19T08:27:49;22.60;83.30
56300;DHT22;42209;6.376;-10.782;2023-09-19T08:30:17;22.70;83.40
56300;DHT22;42209;6.376;-10.782;2023-09-19T08:32:46;22.80;83.30
56300;DHT22;42209;6.376;-10.782;2023-09-19T08:35:14;22.80;82.20
56300;DHT22;42209;6.376;-10.782;2023-09-19T08:37:44;22.60;75.00
56300;DHT22;42209;6.376;-10.782;2023-09-19T08:43:01;22.00;69.40
56300;DHT22;42209;6.376;-10.782;2023-09-19T08:45:31;21.80;66.80
56300;DHT22;42209;6.376;-10.782;2023-09-19T08:48:27;21.70;65.20
56300;DHT22;42209;6.376;-10.782;2023-09-19T08:53:46;21.90;76.00
56300;DHT22;42209;6.376;-10.782;2023-09-19T08:56:18;22.00;78.10
56300;DHT22;42209;6.376;-10.782;2023-09-19T08:59:17;22.10;79.40
56300;DHT22;42209;6.376;-10.782;2023-09-19T09:01:49;22.20;81.00
56300;DHT22;42209;6.376;-10.782;2023-09-19T09:04:18;22.30;81.80
56300;DHT22;42209;6.376;-10.782;2023-09-19T09:06:47;22.30;82.70
56300;DHT22;42209;6.376;-10.782;2023-09-19T09:09:26;22.40;83.30
56300;DHT22;42209;6.376;-10.782;2023-09-19T09:11:59;22.50;83.60
56300;DHT22;42209;6.376;-10.782;2023-09-19T09:14:28;22.60;83.70
56300;DHT22;42209;6.376;-10.782;2023-09-19T09:16:58;22.70;83.50
56300;DHT22;42209;6.376;-10.782;2023-09-19T09:19:31;22.70;83.40
56300;DHT22;42209;6.376;-10.782;2023-09-19T09:22:09;22.80;80.20
56300;DHT22;42209;6.376;-10.782;2023-09-19T09:24:56;22.50;74.80
56300;DHT22;42209;6.376;-10.782;2023-09-19T09:27:25;22.10;71.70
56300;DHT22;42209;6.376;-10.782;2023-09-19T09:30:05;21.90;69.30
56300;DHT22;42209;6.376;-10.782;2023-09-19T09:32:36;21.70;67.10
56300;DHT22;42209;6.376;-10.782;2023-09-19T09:35:33;21.60;65.50
56300;DHT22;42209;6.376;-10.782;2023-09-19T09:38:05;21.70;72.20
56300;DHT22;42209;6.376;-10.782;2023-09-19T09:40:49;21.80;76.00
56300;DHT22;42209;6.376;-10.782;2023-09-19T09:43:36;22.00;78.10
56300;DHT22;42209;6.376;-10.782;2023-09-19T09:46:21;22.10;80.40
56300;DHT22;42209;6.376;-10.782;2023-09-19T09:49:03;22.20;81.70
56300;DHT22;42209;6.376;-10.782;2023-09-19T09:51:32;22.30;82.90
56300;DHT22;42209;6.376;-10.782;2023-09-19T09:54:17;22.40;84.00
56300;DHT22;42209;6.376;-10.782;2023-09-19T09:57:06;22.40;84.60
56300;DHT22;42209;6.376;-10.782;2023-09-19T10:02:14;22.60;85.20
56300;DHT22;42209;6.376;-10.782;2023-09-19T10:04:49;22.70;84.40
56300;DHT22;42209;6.376;-10.782;2023-09-19T10:07:36;22.70;85.30
56300;DHT22;42209;6.376;-10.782;2023-09-19T10:10:41;22.70;79.50
56300;DHT22;42209;6.376;-10.782;2023-09-19T10:13:16;22.30;74.50
56300;DHT22;42209;6.376;-10.782;2023-09-19T10:15:49;22.10;71.30
56300;DHT22;42209;6.376;-10.782;2023-09-19T10:18:23;21.90;69.40
56300;DHT22;42209;6.376;-10.782;2023-09-19T10:20:53;21.70;67.30
56300;DHT22;42209;6.376;-10.782;2023-09-19T10:23:23;21.60;65.40
56300;DHT22;42209;6.376;-10.782;2023-09-19T10:25:53;21.50;64.70
56300;DHT22;42209;6.376;-10.782;2023-09-19T10:28:32;21.70;71.30
56300;DHT22;42209;6.376;-10.782;2023-09-19T10:31:02;21.80;75.20
56300;DHT22;42209;6.376;-10.782;2023-09-19T10:33:36;22.00;77.80
56300;DHT22;42209;6.376;-10.782;2023-09-19T10:36:05;22.10;79.30
56300;DHT22;42209;6.376;-10.782;2023-09-19T10:38:35;22.20;81.00
56300;DHT22;42209;6.376;-10.782;2023-09-19T10:41:06;22.20;82.10
56300;DHT22;42209;6.376;-10.782;2023-09-19T10:43:38;22.30;83.30
56300;DHT22;42209;6.376;-10.782;2023-09-19T10:46:17;22.30;83.90
56300;DHT22;42209;6.376;-10.782;2023-09-19T10:48:46;22.40;84.80
56300;DHT22;42209;6.376;-10.782;2023-09-19T10:51:23;22.50;84.80
56300;DHT22;42209;6.376;-10.782;2023-09-19T10:54:13;22.60;85.50
